sensor_id;sensor_type;location;lat;lon;timestamp;temperature;humidity
17948;DHT22;9099;47.958;11.366;2023-06-14T00:00:16;14.00;99.90
17948;DHT22;9099;47.958;11.366;2023-06-14T00:02:43;13.90;99.90
17948;DHT22;9099;47.958;11.366;2023-06-14T00:05:09;13.90;99.90
17948;DHT22;9099;47.958;11.366;2023-06-14T00:07:39;13.90;99.90
17948;DHT22;9099;47.958;11.366;2023-06-14T00:10:08;13.90;99.90
17948;DHT22;9099;47.958;11.366;2023-06-14T00:12:35;13.90;99.90
17948;DHT22;9099;47.958;11.366;2023-06-14T00:15:05;13.80;99.90
17948;DHT22;9099;47.958;11.366;2023-06-14T00:17:32;13.70;99.90
17948;DHT22;9099;47.958;11.366;2023-06-14T00:20:00;13.60;99.90
17948;DHT22;9099;47.958;11.366;2023-06-14T00:22:30;13.50;99.90
17948;DHT22;9099;47.958;11.366;2023-06-14T00:24:58;13.50;99.90
17948;DHT22;9099;47.958;11.366;2023-06-14T00:27:25;13.40;99.90
17948;DHT22;9099;47.958;11.366;2023-06-14T00:29:52;13.50;99.90
17948;DHT22;9099;47.958;11.366;2023-06-14T00:32:20;13.40;99.90
17948;DHT22;9099;47.958;11.366;2023-06-14T00:34:51;13.40;99.90
17948;DHT22;9099;47.958;11.366;2023-06-14T00:37:18;13.30;99.90
17948;DHT22;9099;47.958;11.366;2023-06-14T00:39:44;13.10;99.90
17948;DHT22;9099;47.958;11.366;2023-06-14T00:42:11;13.10;99.90
17948;DHT22;9099;47.958;11.366;2023-06-14T00:44:49;13.00;99.90
17948;DHT22;9099;47.958;11.366;2023-06-14T00:47:16;12.90;99.90
17948;DHT22;9099;47.958;11.366;2023-06-14T00:49:45;12.90;99.90
17948;DHT22;9099;47.958;11.366;2023-06-14T00:52:12;12.90;99.90
17948;DHT22;9099;47.958;11.366;2023-06-14T00:54:40;12.90;99.90
17948;DHT22;9099;47.958;11.366;2023-06-14T00:57:07;12.90;99.90
17948;DHT22;9099;47.958;11.366;2023-06-14T00:59:40;12.90;99.90
17948;DHT22;9099;47.958;11.366;2023-06-14T01:02:08;12.90;99.90
17948;DHT22;9099;47.958;11.366;2023-06-14T01:04:35;12.80;99.90
17948;DHT22;9099;47.958;11.366;2023-06-14T01:07:10;12.80;99.90
17948;DHT22;9099;47.958;11.366;2023-06-14T01:09:46;12.90;99.90
17948;DHT22;9099;47.958;11.366;2023-06-14T01:12:19;12.80;99.90
17948;DHT22;9099;47.958;11.366;2023-06-14T01:14:48;12.80;99.90
17948;DHT22;9099;47.958;11.366;2023-06-14T01:17:16;12.80;99.90
17948;DHT22;9099;47.958;11.366;2023-06-14T01:19:44;12.80;99.90
17948;DHT22;9099;47.958;11.366;2023-06-14T01:22:13;12.80;99.90
17948;DHT22;9099;47.958;11.366;2023-06-14T01:24:42;12.80;99.90
17948;DHT22;9099;47.958;11.366;2023-06-14T01:27:11;12.70;99.90
17948;DHT22;9099;47.958;11.366;2023-06-14T01:29:41;12.70;99.90
17948;DHT22;9099;47.958;11.366;2023-06-14T01:32:11;12.80;99.90
17948;DHT22;9099;47.958;11.366;2023-06-14T01:34:39;12.70;99.90
17948;DHT22;9099;47.958;11.366;2023-06-14T01:37:06;12.70;99.90
17948;DHT22;9099;47.958;11.366;2023-06-14T01:39:34;12.70;99.90
17948;DHT22;9099;47.958;11.366;2023-06-14T01:42:03;12.70;99.90
17948;DHT22;9099;47.958;11.366;2023-06-14T01:44:32;12.60;99.90
17948;DHT22;9099;47.958;11.366;2023-06-14T01:46:59;12.60;99.90
17948;DHT22;9099;47.958;11.366;2023-06-14T01:49:26;12.60;99.90
17948;DHT22;9099;47.958;11.366;2023-06-14T01:51:52;12.50;99.90
17948;DHT22;9099;47.958;11.366;2023-06-14T01:54:19;12.50;99.90
17948;DHT22;9099;47.958;11.366;2023-06-14T01:56:47;12.40;99.90
17948;DHT22;9099;47.958;11.366;2023-06-14T01:59:15;12.40;99.90
17948;DHT22;9099;47.958;11.366;2023-06-14T02:01:42;12.40;99.90
17948;DHT22;9099;47.958;11.366;2023-06-14T02:04:09;12.30;99.90
17948;DHT22;9099;47.958;11.366;2023-06-14T02:06:36;12.20;99.90
17948;DHT22;9099;47.958;11.366;2023-06-14T02:09:03;12.00;99.90
17948;DHT22;9099;47.958;11.366;2023-06-14T02:11:30;11.90;99.90
17948;DHT22;9099;47.958;11.366;2023-06-14T02:13:57;11.90;99.90
17948;DHT22;9099;47.958;11.366;2023-06-14T02:16:26;11.80;99.90
17948;DHT22;9099;47.958;11.366;2023-06-14T02:18:55;11.80;99.90
17948;DHT22;9099;47.958;11.366;2023-06-14T02:21:22;11.70;99.90
17948;DHT22;9099;47.958;11.366;2023-06-14T02:23:49;11.70;99.90
17948;DHT22;9099;47.958;11.366;2023-06-14T02:26:16;11.70;99.90
17948;DHT22;9099;47.958;11.366;2023-06-14T02:28:43;11.70;99.90
17948;DHT22;9099;47.958;11.366;2023-06-14T02:31:09;11.80;99.90
17948;DHT22;9099;47.958;11.366;2023-06-14T02:33:38;11.80;99.90
17948;DHT22;9099;47.958;11.366;2023-06-14T02:36:06;11.80;99.90
17948;DHT22;9099;47.958;11.366;2023-06-14T02:38:32;11.70;99.90
17948;DHT22;9099;47.958;11.366;2023-06-14T02:40:59;11.70;99.90
17948;DHT22;9099;47.958;11.366;2023-06-14T02:43:28;11.70;99.90
17948;DHT22;9099;47.958;11.366;2023-06-14T02:45:55;11.70;99.90
17948;DHT22;9099;47.958;11.366;2023-06-14T02:48:22;11.70;99.90
17948;DHT22;9099;47.958;11.366;2023-06-14T02:50:50;11.70;99.90
17948;DHT22;9099;47.958;11.366;2023-06-14T02:53:17;11.70;99.90
17948;DHT22;9099;47.958;11.366;2023-06-14T02:55:43;11.70;99.90
17948;DHT22;9099;47.958;11.366;2023-06-14T02:58:12;11.70;99.90
17948;DHT22;9099;47.958;11.366;2023-06-14T03:00:39;11.70;99.90
17948;DHT22;9099;47.958;11.366;2023-06-14T03:03:06;11.70;99.90
17948;DHT22;9099;47.958;11.366;2023-06-14T03:05:40;11.70;99.90
17948;DHT22;9099;47.958;11.366;2023-06-14T03:08:13;11.70;99.90
17948;DHT22;9099;47.958;11.366;2023-06-14T03:10:42;11.70;99.90
17948;DHT22;9099;47.958;11.366;2023-06-14T03:13:09;11.70;99.90
17948;DHT22;9099;47.958;11.366;2023-06-14T03:15:37;11.70;99.90
17948;DHT22;9099;47.958;11.366;2023-06-14T03:18:07;11.70;99.90
17948;DHT22;9099;47.958;11.366;2023-06-14T03:20:34;11.60;99.90
17948;DHT22;9099;47.958;11.366;2023-06-14T03:23:02;11.60;99.90
17948;DHT22;9099;47.958;11.366;2023-06-14T03:25:32;11.60;99.90
17948;DHT22;9099;47.958;11.366;2023-06-14T03:28:01;11.50;99.90
17948;DHT22;9099;47.958;11.366;2023-06-14T03:30:29;11.50;99.90
17948;DHT22;9099;47.958;11.366;2023-06-14T03:32:56;11.50;99.90
17948;DHT22;9099;47.958;11.366;2023-06-14T03:35:23;11.50;99.90
17948;DHT22;9099;47.958;11.366;2023-06-14T03:37:50;11.40;99.90
17948;DHT22;9099;47.958;11.366;2023-06-14T03:40:18;11.40;99.90
17948;DHT22;9099;47.958;11.366;2023-06-14T03:42:46;11.40;99.90
17948;DHT22;9099;47.958;11.366;2023-06-14T03:45:13;11.30;99.90
17948;DHT22;9099;47.958;11.366;2023-06-14T03:47:40;11.30;99.90
17948;DHT22;9099;47.958;11.366;2023-06-14T03:50:07;11.30;99.90
17948;DHT22;9099;47.958;11.366;2023-06-14T03:52:34;11.30;99.90
17948;DHT22;9099;47.958;11.366;2023-06-14T03:55:02;11.30;99.90
17948;DHT22;9099;47.958;11.366;2023-06-14T03:57:29;11.40;99.90
17948;DHT22;9099;47.958;11.366;2023-06-14T03:59:58;11.50;99.90
17948;DHT22;9099;47.958;11.366;2023-06-14T04:02:24;11.50;99.90
17948;DHT22;9099;47.958;11.366;2023-06-14T04:04:54;11.50;99.90
17948;DHT22;9099;47.958;11.366;2023-06-14T04:07:21;11.50;99.90
17948;DHT22;9099;47.958;11.366;2023-06-14T04:09:49;11.50;99.90
17948;DHT22;9099;47.958;11.366;2023-06-14T04:12:15;11.40;99.90
17948;DHT22;9099;47.958;11.366;2023-06-14T04:14:43;11.40;99.90
17948;DHT22;9099;47.958;11.366;2023-06-14T04:17:11;11.40;99.90
17948;DHT22;9099;47.958;11.366;2023-06-14T04:19:38;11.40;99.90
17948;DHT22;9099;47.958;11.366;2023-06-14T04:22:05;11.40;99.90
17948;DHT22;9099;47.958;11.366;2023-06-14T04:24:32;11.40;99.90
17948;DHT22;9099;47.958;11.366;2023-06-14T04:27:00;11.40;99.90
17948;DHT22;9099;47.958;11.366;2023-06-14T04:29:27;11.50;99.90
17948;DHT22;9099;47.958;11.366;2023-06-14T04:31:55;11.50;99.90
17948;DHT22;9099;47.958;11.366;2023-06-14T04:34:25;11.60;99.90
17948;DHT22;9099;47.958;11.366;2023-06-14T04:36:55;11.70;99.90
17948;DHT22;9099;47.958;11.366;2023-06-14T04:39:24;11.80;99.90
17948;DHT22;9099;47.958;11.366;2023-06-14T04:41:51;11.80;99.90
17948;DHT22;9099;47.958;11.366;2023-06-14T04:44:23;11.90;99.90
17948;DHT22;9099;47.958;11.366;2023-06-14T04:46:55;12.00;99.90
17948;DHT22;9099;47.958;11.366;2023-06-14T04:49:25;12.10;99.90
17948;DHT22;9099;47.958;11.366;2023-06-14T04:51:53;12.20;99.90
17948;DHT22;9099;47.958;11.366;2023-06-14T04:54:22;12.20;99.90
17948;DHT22;9099;47.958;11.366;2023-06-14T04:56:51;12.30;99.90
17948;DHT22;9099;47.958;11.366;2023-06-14T04:59:18;12.40;99.90
17948;DHT22;9099;47.958;11.366;2023-06-14T05:01:45;12.40;99.90
17948;DHT22;9099;47.958;11.366;2023-06-14T05:04:13;12.50;99.90
17948;DHT22;9099;47.958;11.366;2023-06-14T05:06:42;12.50;99.90
17948;DHT22;9099;47.958;11.366;2023-06-14T05:09:10;12.70;99.90
17948;DHT22;9099;47.958;11.366;2023-06-14T05:11:37;12.80;99.90
17948;DHT22;9099;47.958;11.366;2023-06-14T05:14:04;12.90;99.90
17948;DHT22;9099;47.958;11.366;2023-06-14T05:16:31;13.00;99.90
17948;DHT22;9099;47.958;11.366;2023-06-14T05:18:58;13.10;99.90
17948;DHT22;9099;47.958;11.366;2023-06-14T05:21:26;13.30;99.90
17948;DHT22;9099;47.958;11.366;2023-06-14T05:23:55;13.40;99.90
17948;DHT22;9099;47.958;11.366;2023-06-14T05:26:21;13.50;99.90
17948;DHT22;9099;47.958;11.366;2023-06-14T05:28:50;13.70;99.90
17948;DHT22;9099;47.958;11.366;2023-06-14T05:31:18;13.80;99.90
17948;DHT22;9099;47.958;11.366;2023-06-14T05:33:45;13.90;99.90
17948;DHT22;9099;47.958;11.366;2023-06-14T05:36:12;13.90;99.90
17948;DHT22;9099;47.958;11.366;2023-06-14T05:38:39;14.00;99.90
17948;DHT22;9099;47.958;11.366;2023-06-14T05:41:07;14.20;99.90
17948;DHT22;9099;47.958;11.366;2023-06-14T05:43:34;14.30;99.90
17948;DHT22;9099;47.958;11.366;2023-06-14T05:46:01;14.40;99.90
17948;DHT22;9099;47.958;11.366;2023-06-14T05:48:28;14.50;99.90
17948;DHT22;9099;47.958;11.366;2023-06-14T05:50:55;14.70;99.90
17948;DHT22;9099;47.958;11.366;2023-06-14T05:53:22;14.80;99.90
17948;DHT22;9099;47.958;11.366;2023-06-14T05:55:50;15.00;99.90
17948;DHT22;9099;47.958;11.366;2023-06-14T05:58:20;15.30;99.90
17948;DHT22;9099;47.958;11.366;2023-06-14T06:00:47;15.50;99.90
17948;DHT22;9099;47.958;11.366;2023-06-14T06:03:14;15.70;99.90
17948;DHT22;9099;47.958;11.366;2023-06-14T06:05:41;15.80;99.90
17948;DHT22;9099;47.958;11.366;2023-06-14T06:08:07;15.90;99.90
17948;DHT22;9099;47.958;11.366;2023-06-14T06:10:34;15.80;99.90
17948;DHT22;9099;47.958;11.366;2023-06-14T06:13:01;15.80;99.90
17948;DHT22;9099;47.958;11.366;2023-06-14T06:15:29;15.90;99.90
17948;DHT22;9099;47.958;11.366;2023-06-14T06:17:56;16.00;99.90
17948;DHT22;9099;47.958;11.366;2023-06-14T06:20:23;16.10;99.90
17948;DHT22;9099;47.958;11.366;2023-06-14T06:22:53;16.20;99.90
17948;DHT22;9099;47.958;11.366;2023-06-14T06:25:20;16.30;99.90
17948;DHT22;9099;47.958;11.366;2023-06-14T06:27:47;16.40;99.90
17948;DHT22;9099;47.958;11.366;2023-06-14T06:30:15;16.60;99.90
17948;DHT22;9099;47.958;11.366;2023-06-14T06:32:44;16.70;99.90
17948;DHT22;9099;47.958;11.366;2023-06-14T06:35:11;16.90;99.90
17948;DHT22;9099;47.958;11.366;2023-06-14T06:37:39;17.00;99.90
17948;DHT22;9099;47.958;11.366;2023-06-14T06:40:06;17.20;99.90
17948;DHT22;9099;47.958;11.366;2023-06-14T06:42:34;17.50;99.90
17948;DHT22;9099;47.958;11.366;2023-06-14T06:45:01;17.80;99.90
17948;DHT22;9099;47.958;11.366;2023-06-14T06:47:28;18.00;99.90
17948;DHT22;9099;47.958;11.366;2023-06-14T06:49:56;18.30;99.90
17948;DHT22;9099;47.958;11.366;2023-06-14T06:52:23;18.20;99.90
17948;DHT22;9099;47.958;11.366;2023-06-14T06:54:50;18.40;99.90
17948;DHT22;9099;47.958;11.366;2023-06-14T06:57:20;18.60;99.90
17948;DHT22;9099;47.958;11.366;2023-06-14T06:59:48;18.80;99.90
17948;DHT22;9099;47.958;11.366;2023-06-14T07:02:15;18.80;99.90
17948;DHT22;9099;47.958;11.366;2023-06-14T07:04:42;18.90;99.90
17948;DHT22;9099;47.958;11.366;2023-06-14T07:07:10;19.00;99.90
17948;DHT22;9099;47.958;11.366;2023-06-14T07:09:37;19.20;99.90
17948;DHT22;9099;47.958;11.366;2023-06-14T07:12:05;19.50;99.90
17948;DHT22;9099;47.958;11.366;2023-06-14T07:14:32;19.80;99.90
17948;DHT22;9099;47.958;11.366;2023-06-14T07:16:59;20.00;99.90
17948;DHT22;9099;47.958;11.366;2023-06-14T07:19:26;20.20;99.90
17948;DHT22;9099;47.958;11.366;2023-06-14T07:21:52;20.30;99.90
17948;DHT22;9099;47.958;11.366;2023-06-14T07:24:21;20.20;99.90
17948;DHT22;9099;47.958;11.366;2023-06-14T07:26:48;20.10;99.90
17948;DHT22;9099;47.958;11.366;2023-06-14T07:29:14;20.20;99.90
17948;DHT22;9099;47.958;11.366;2023-06-14T07:31:42;20.40;99.90
17948;DHT22;9099;47.958;11.366;2023-06-14T07:34:09;20.70;99.90
17948;DHT22;9099;47.958;11.366;2023-06-14T07:36:36;20.90;99.90
17948;DHT22;9099;47.958;11.366;2023-06-14T07:39:03;21.00;99.90
17948;DHT22;9099;47.958;11.366;2023-06-14T07:41:33;21.10;99.90
17948;DHT22;9099;47.958;11.366;2023-06-14T07:44:00;21.30;99.90
17948;DHT22;9099;47.958;11.366;2023-06-14T07:46:26;21.60;99.90
17948;DHT22;9099;47.958;11.366;2023-06-14T07:48:53;21.80;99.90
17948;DHT22;9099;47.958;11.366;2023-06-14T07:51:20;21.90;98.80
17948;DHT22;9099;47.958;11.366;2023-06-14T07:53:48;21.70;98.90
17948;DHT22;9099;47.958;11.366;2023-06-14T07:56:15;21.60;98.50
17948;DHT22;9099;47.958;11.366;2023-06-14T07:58:43;21.60;99.90
17948;DHT22;9099;47.958;11.366;2023-06-14T08:01:10;21.80;99.90
17948;DHT22;9099;47.958;11.366;2023-06-14T08:03:37;22.00;98.40
17948;DHT22;9099;47.958;11.366;2023-06-14T08:06:03;22.20;98.10
17948;DHT22;9099;47.958;11.366;2023-06-14T08:08:31;22.30;97.30
17948;DHT22;9099;47.958;11.366;2023-06-14T08:10:58;22.40;98.90
17948;DHT22;9099;47.958;11.366;2023-06-14T08:13:25;22.60;99.90
17948;DHT22;9099;47.958;11.366;2023-06-14T08:15:53;22.90;97.80
17948;DHT22;9099;47.958;11.366;2023-06-14T08:18:20;22.90;96.90
17948;DHT22;9099;47.958;11.366;2023-06-14T08:20:47;23.00;98.20
17948;DHT22;9099;47.958;11.366;2023-06-14T08:23:15;23.30;97.50
17948;DHT22;9099;47.958;11.366;2023-06-14T08:25:44;23.20;96.90
17948;DHT22;9099;47.958;11.366;2023-06-14T08:28:11;23.20;96.90
17948;DHT22;9099;47.958;11.366;2023-06-14T08:30:38;23.10;96.40
17948;DHT22;9099;47.958;11.366;2023-06-14T08:33:06;23.10;96.30
17948;DHT22;9099;47.958;11.366;2023-06-14T08:35:33;23.20;97.70
17948;DHT22;9099;47.958;11.366;2023-06-14T08:40:31;23.50;95.30
17948;DHT22;9099;47.958;11.366;2023-06-14T08:42:57;23.50;95.50
17948;DHT22;9099;47.958;11.366;2023-06-14T08:45:24;23.50;94.70
17948;DHT22;9099;47.958;11.366;2023-06-14T08:47:51;23.30;94.60
17948;DHT22;9099;47.958;11.366;2023-06-14T08:50:25;23.40;94.30
17948;DHT22;9099;47.958;11.366;2023-06-14T08:52:56;23.60;95.00
17948;DHT22;9099;47.958;11.366;2023-06-14T08:55:27;23.80;94.50
17948;DHT22;9099;47.958;11.366;2023-06-14T08:57:55;24.10;95.60
17948;DHT22;9099;47.958;11.366;2023-06-14T09:00:23;24.20;94.20
17948;DHT22;9099;47.958;11.366;2023-06-14T09:02:51;24.40;94.70
17948;DHT22;9099;47.958;11.366;2023-06-14T09:05:23;24.70;93.80
17948;DHT22;9099;47.958;11.366;2023-06-14T09:07:51;25.00;95.00
17948;DHT22;9099;47.958;11.366;2023-06-14T09:10:18;25.30;92.30
17948;DHT22;9099;47.958;11.366;2023-06-14T09:12:45;25.10;92.20
17948;DHT22;9099;47.958;11.366;2023-06-14T09:15:13;24.80;91.90
17948;DHT22;9099;47.958;11.366;2023-06-14T09:17:40;24.90;92.20
17948;DHT22;9099;47.958;11.366;2023-06-14T09:20:08;25.30;92.90
17948;DHT22;9099;47.958;11.366;2023-06-14T09:22:37;25.40;93.10
17948;DHT22;9099;47.958;11.366;2023-06-14T09:25:05;25.50;92.50
17948;DHT22;9099;47.958;11.366;2023-06-14T09:27:33;25.90;93.30
17948;DHT22;9099;47.958;11.366;2023-06-14T09:30:02;25.90;92.20
17948;DHT22;9099;47.958;11.366;2023-06-14T09:32:29;25.90;92.40
17948;DHT22;9099;47.958;11.366;2023-06-14T09:34:56;25.90;92.60
17948;DHT22;9099;47.958;11.366;2023-06-14T09:37:29;26.10;91.60
17948;DHT22;9099;47.958;11.366;2023-06-14T09:39:58;26.20;89.80
17948;DHT22;9099;47.958;11.366;2023-06-14T09:42:25;26.20;90.90
17948;DHT22;9099;47.958;11.366;2023-06-14T09:44:56;26.20;90.20
17948;DHT22;9099;47.958;11.366;2023-06-14T09:47:23;26.00;91.30
17948;DHT22;9099;47.958;11.366;2023-06-14T09:49:51;26.10;90.90
17948;DHT22;9099;47.958;11.366;2023-06-14T09:52:21;26.00;88.90
17948;DHT22;9099;47.958;11.366;2023-06-14T09:54:48;25.60;89.70
17948;DHT22;9099;47.958;11.366;2023-06-14T09:57:21;25.80;88.70
17948;DHT22;9099;47.958;11.366;2023-06-14T09:59:51;25.70;89.00
17948;DHT22;9099;47.958;11.366;2023-06-14T10:02:25;25.60;88.10
17948;DHT22;9099;47.958;11.366;2023-06-14T10:04:58;25.50;87.40
17948;DHT22;9099;47.958;11.366;2023-06-14T10:07:27;26.20;92.00
17948;DHT22;9099;47.958;11.366;2023-06-14T10:09:57;26.60;90.90
17948;DHT22;9099;47.958;11.366;2023-06-14T10:12:26;27.10;85.10
17948;DHT22;9099;47.958;11.366;2023-06-14T10:14:54;26.80;86.90
17948;DHT22;9099;47.958;11.366;2023-06-14T10:17:30;26.50;88.70
17948;DHT22;9099;47.958;11.366;2023-06-14T10:20:10;26.50;90.00
17948;DHT22;9099;47.958;11.366;2023-06-14T10:22:45;26.30;91.40
17948;DHT22;9099;47.958;11.366;2023-06-14T10:25:26;26.50;87.50
17948;DHT22;9099;47.958;11.366;2023-06-14T10:28:02;27.10;90.50
17948;DHT22;9099;47.958;11.366;2023-06-14T10:30:29;28.10;90.20
17948;DHT22;9099;47.958;11.366;2023-06-14T10:33:06;28.10;87.50
17948;DHT22;9099;47.958;11.366;2023-06-14T10:35:33;28.20;88.00
17948;DHT22;9099;47.958;11.366;2023-06-14T10:38:08;28.20;84.20
17948;DHT22;9099;47.958;11.366;2023-06-14T10:40:36;28.10;88.00
17948;DHT22;9099;47.958;11.366;2023-06-14T10:43:22;27.90;86.30
17948;DHT22;9099;47.958;11.366;2023-06-14T10:46:15;28.40;88.20
17948;DHT22;9099;47.958;11.366;2023-06-14T10:48:43;28.90;88.00
17948;DHT22;9099;47.958;11.366;2023-06-14T10:51:17;29.30;82.50
17948;DHT22;9099;47.958;11.366;2023-06-14T10:53:46;28.80;83.60
17948;DHT22;9099;47.958;11.366;2023-06-14T10:56:27;28.70;82.70
17948;DHT22;9099;47.958;11.366;2023-06-14T10:58:57;28.80;85.00
17948;DHT22;9099;47.958;11.366;2023-06-14T11:01:32;28.80;84.80
17948;DHT22;9099;47.958;11.366;2023-06-14T11:04:07;29.00;89.80
17948;DHT22;9099;47.958;11.366;2023-06-14T11:06:45;28.90;85.20
17948;DHT22;9099;47.958;11.366;2023-06-14T11:12:10;29.30;88.30
17948;DHT22;9099;47.958;11.366;2023-06-14T11:14:38;29.90;86.70
17948;DHT22;9099;47.958;11.366;2023-06-14T11:17:05;30.10;85.10
17948;DHT22;9099;47.958;11.366;2023-06-14T11:19:33;30.30;87.40
17948;DHT22;9099;47.958;11.366;2023-06-14T11:21:59;30.40;82.70
17948;DHT22;9099;47.958;11.366;2023-06-14T11:24:26;30.00;84.40
17948;DHT22;9099;47.958;11.366;2023-06-14T11:26:55;29.20;88.40
17948;DHT22;9099;47.958;11.366;2023-06-14T11:29:22;29.00;83.10
17948;DHT22;9099;47.958;11.366;2023-06-14T11:31:51;28.50;81.40
17948;DHT22;9099;47.958;11.366;2023-06-14T11:34:18;28.40;83.40
17948;DHT22;9099;47.958;11.366;2023-06-14T11:36:45;28.20;83.70
17948;DHT22;9099;47.958;11.366;2023-06-14T11:39:13;28.40;84.20
17948;DHT22;9099;47.958;11.366;2023-06-14T11:41:41;28.70;89.00
17948;DHT22;9099;47.958;11.366;2023-06-14T11:44:09;28.90;85.40
17948;DHT22;9099;47.958;11.366;2023-06-14T11:46:37;28.90;81.90
17948;DHT22;9099;47.958;11.366;2023-06-14T11:49:07;28.50;86.00
17948;DHT22;9099;47.958;11.366;2023-06-14T11:51:35;27.60;82.80
17948;DHT22;9099;47.958;11.366;2023-06-14T11:54:03;26.90;86.10
17948;DHT22;9099;47.958;11.366;2023-06-14T11:56:31;26.30;84.10
17948;DHT22;9099;47.958;11.366;2023-06-14T11:58:58;26.10;85.30
17948;DHT22;9099;47.958;11.366;2023-06-14T12:01:25;26.50;85.10
17948;DHT22;9099;47.958;11.366;2023-06-14T12:03:54;27.00;85.40
17948;DHT22;9099;47.958;11.366;2023-06-14T12:06:27;27.30;84.70
17948;DHT22;9099;47.958;11.366;2023-06-14T12:08:59;27.90;83.10
17948;DHT22;9099;47.958;11.366;2023-06-14T12:11:31;27.60;85.40
17948;DHT22;9099;47.958;11.366;2023-06-14T12:13:58;27.60;87.20
17948;DHT22;9099;47.958;11.366;2023-06-14T12:16:30;27.90;87.80
17948;DHT22;9099;47.958;11.366;2023-06-14T12:19:00;27.70;86.60
17948;DHT22;9099;47.958;11.366;2023-06-14T12:21:29;27.40;85.70
17948;DHT22;9099;47.958;11.366;2023-06-14T12:23:56;27.10;86.10
17948;DHT22;9099;47.958;11.366;2023-06-14T12:26:24;26.90;89.10
17948;DHT22;9099;47.958;11.366;2023-06-14T12:28:52;26.90;87.90
17948;DHT22;9099;47.958;11.366;2023-06-14T12:31:19;27.30;89.60
17948;DHT22;9099;47.958;11.366;2023-06-14T12:33:46;27.60;88.90
17948;DHT22;9099;47.958;11.366;2023-06-14T12:36:14;27.60;86.30
17948;DHT22;9099;47.958;11.366;2023-06-14T12:38:43;28.00;88.40
17948;DHT22;9099;47.958;11.366;2023-06-14T12:41:11;28.20;85.70
17948;DHT22;9099;47.958;11.366;2023-06-14T12:43:39;28.70;86.00
17948;DHT22;9099;47.958;11.366;2023-06-14T12:46:06;29.10;87.00
17948;DHT22;9099;47.958;11.366;2023-06-14T12:48:33;28.90;84.50
17948;DHT22;9099;47.958;11.366;2023-06-14T12:51:00;28.40;83.70
17948;DHT22;9099;47.958;11.366;2023-06-14T12:53:27;28.10;84.00
17948;DHT22;9099;47.958;11.366;2023-06-14T12:55:55;28.10;85.70
17948;DHT22;9099;47.958;11.366;2023-06-14T12:58:22;28.10;87.40
17948;DHT22;9099;47.958;11.366;2023-06-14T13:00:49;28.30;86.60
17948;DHT22;9099;47.958;11.366;2023-06-14T13:03:16;28.00;86.20
17948;DHT22;9099;47.958;11.366;2023-06-14T13:05:43;27.80;86.60
17948;DHT22;9099;47.958;11.366;2023-06-14T13:08:10;27.30;85.20
17948;DHT22;9099;47.958;11.366;2023-06-14T13:10:37;26.80;87.40
17948;DHT22;9099;47.958;11.366;2023-06-14T13:13:05;27.20;87.50
17948;DHT22;9099;47.958;11.366;2023-06-14T13:15:33;27.70;88.50
17948;DHT22;9099;47.958;11.366;2023-06-14T13:18:00;28.40;87.30
17948;DHT22;9099;47.958;11.366;2023-06-14T13:20:28;28.80;87.80
17948;DHT22;9099;47.958;11.366;2023-06-14T13:22:55;29.20;85.50
17948;DHT22;9099;47.958;11.366;2023-06-14T13:25:22;29.30;84.90
17948;DHT22;9099;47.958;11.366;2023-06-14T13:27:49;29.50;83.40
17948;DHT22;9099;47.958;11.366;2023-06-14T13:30:17;29.30;81.00
17948;DHT22;9099;47.958;11.366;2023-06-14T13:32:44;28.90;85.80
17948;DHT22;9099;47.958;11.366;2023-06-14T13:35:11;28.80;83.00
17948;DHT22;9099;47.958;11.366;2023-06-14T13:37:38;28.50;81.90
17948;DHT22;9099;47.958;11.366;2023-06-14T13:40:06;28.40;85.00
17948;DHT22;9099;47.958;11.366;2023-06-14T13:42:33;28.60;83.80
17948;DHT22;9099;47.958;11.366;2023-06-14T13:45:01;29.00;84.30
17948;DHT22;9099;47.958;11.366;2023-06-14T13:47:29;29.20;84.70
17948;DHT22;9099;47.958;11.366;2023-06-14T13:49:56;29.40;82.70
17948;DHT22;9099;47.958;11.366;2023-06-14T13:52:23;29.40;84.00
17948;DHT22;9099;47.958;11.366;2023-06-14T13:54:50;29.30;82.10
17948;DHT22;9099;47.958;11.366;2023-06-14T13:57:17;28.90;81.30
17948;DHT22;9099;47.958;11.366;2023-06-14T13:59:44;28.50;81.60
17948;DHT22;9099;47.958;11.366;2023-06-14T14:02:11;28.80;82.70
17948;DHT22;9099;47.958;11.366;2023-06-14T14:04:40;29.10;81.20
17948;DHT22;9099;47.958;11.366;2023-06-14T14:07:07;28.90;85.10
17948;DHT22;9099;47.958;11.366;2023-06-14T14:09:34;28.40;82.50
17948;DHT22;9099;47.958;11.366;2023-06-14T14:12:03;28.30;83.80
17948;DHT22;9099;47.958;11.366;2023-06-14T14:14:30;28.10;83.10
17948;DHT22;9099;47.958;11.366;2023-06-14T14:16:58;27.60;83.80
17948;DHT22;9099;47.958;11.366;2023-06-14T14:19:24;27.20;84.20
17948;DHT22;9099;47.958;11.366;2023-06-14T14:21:53;27.10;82.30
17948;DHT22;9099;47.958;11.366;2023-06-14T14:24:20;26.90;87.10
17948;DHT22;9099;47.958;11.366;2023-06-14T14:26:47;26.90;87.80
17948;DHT22;9099;47.958;11.366;2023-06-14T14:29:15;27.00;83.70
17948;DHT22;9099;47.958;11.366;2023-06-14T14:31:42;26.90;84.30
17948;DHT22;9099;47.958;11.366;2023-06-14T14:34:09;26.70;86.30
17948;DHT22;9099;47.958;11.366;2023-06-14T14:36:36;26.80;85.60
17948;DHT22;9099;47.958;11.366;2023-06-14T14:39:04;27.20;85.00
17948;DHT22;9099;47.958;11.366;2023-06-14T14:41:32;27.20;81.60
17948;DHT22;9099;47.958;11.366;2023-06-14T14:43:59;26.80;83.10
17948;DHT22;9099;47.958;11.366;2023-06-14T14:46:26;26.40;85.20
17948;DHT22;9099;47.958;11.366;2023-06-14T14:48:53;26.20;82.90
17948;DHT22;9099;47.958;11.366;2023-06-14T14:51:20;26.50;86.20
17948;DHT22;9099;47.958;11.366;2023-06-14T14:53:47;26.70;86.10
17948;DHT22;9099;47.958;11.366;2023-06-14T14:56:15;26.80;80.80
17948;DHT22;9099;47.958;11.366;2023-06-14T14:58:42;26.70;84.20
17948;DHT22;9099;47.958;11.366;2023-06-14T15:01:09;27.00;84.30
17948;DHT22;9099;47.958;11.366;2023-06-14T15:03:37;27.20;85.40
17948;DHT22;9099;47.958;11.366;2023-06-14T15:06:04;27.30;85.60
17948;DHT22;9099;47.958;11.366;2023-06-14T15:08:30;27.50;82.90
17948;DHT22;9099;47.958;11.366;2023-06-14T15:10:57;27.50;84.80
17948;DHT22;9099;47.958;11.366;2023-06-14T15:13:25;27.60;84.00
17948;DHT22;9099;47.958;11.366;2023-06-14T15:15:53;27.60;83.80
17948;DHT22;9099;47.958;11.366;2023-06-14T15:18:20;27.70;81.80
17948;DHT22;9099;47.958;11.366;2023-06-14T15:20:48;27.60;83.40
17948;DHT22;9099;47.958;11.366;2023-06-14T15:23:15;27.40;81.00
17948;DHT22;9099;47.958;11.366;2023-06-14T15:25:45;27.20;82.70
17948;DHT22;9099;47.958;11.366;2023-06-14T15:28:13;27.00;81.20
17948;DHT22;9099;47.958;11.366;2023-06-14T15:30:41;26.70;83.60
17948;DHT22;9099;47.958;11.366;2023-06-14T15:33:08;26.50;80.00
17948;DHT22;9099;47.958;11.366;2023-06-14T15:35:35;26.20;83.10
17948;DHT22;9099;47.958;11.366;2023-06-14T15:38:02;26.00;83.50
17948;DHT22;9099;47.958;11.366;2023-06-14T15:40:29;26.20;84.90